Time;durP1;ratioP1;P1;durP2;ratioP2;P2;SDS_P1;SDS_P2;PMS_P1;PMS_P2;Temp;Humidity;BMP_temperature;BMP_pressure;BME280_temperature;BME280_humidity;BME280_pressure;Samples;Min_cycle;Max_cycle;Signal;HPM_P1;HPM_P2
2022/08/31 00:04:55;;;;;;;3.33;1.40;;;19.00;68.70;;;;;;2098888;28;20249;-86
2022/08/31 00:05:58;;;;;;;5.00;1.40;;;19.00;68.80;;;;;;2098282;28;20272;-86
2022/08/31 00:06:59;;;;;;;2.60;1.35;;;19.00;68.80;;;;;;2088033;28;20278;-87
2022/08/31 00:08:00;;;;;;;4.70;1.17;;;19.00;68.90;;;;;;2086069;28;20612;-85
2022/08/31 00:09:02;;;;;;;3.50;1.40;;;19.00;68.90;;;;;;2090420;28;20064;-86
2022/08/31 00:10:13;;;;;;;4.43;1.50;;;19.00;69.00;;;;;;2089986;28;20025;-82
2022/08/31 00:11:15;;;;;;;3.33;1.50;;;19.00;68.80;;;;;;2090705;28;20262;-83
2022/08/31 00:12:16;;;;;;;3.28;1.50;;;19.00;68.80;;;;;;2099137;28;20281;-82
2022/08/31 00:13:17;;;;;;;3.85;1.35;;;19.00;68.90;;;;;;2090905;28;20037;-85
2022/08/31 00:14:18;;;;;;;6.13;2.10;;;19.00;68.90;;;;;;2090855;28;20021;-84
2022/08/31 00:15:21;;;;;;;2.90;1.52;;;19.00;69.00;;;;;;2091743;28;20029;-84
2022/08/31 00:16:23;;;;;;;2.35;1.35;;;19.00;68.90;;;;;;2090022;28;20082;-82
2022/08/31 00:17:23;;;;;;;;;;;19.00;69.10;;;;;;2086194;28;20266;-82
2022/08/31 00:18:25;;;;;;;5.40;1.60;;;19.00;69.00;;;;;;2102141;28;19904;-83
2022/08/31 00:19:25;;;;;;;4.88;1.55;;;19.00;69.10;;;;;;2099619;28;20112;-81
2022/08/31 00:20:27;;;;;;;7.17;1.60;;;19.00;69.80;;;;;;2093148;28;20016;-84
2022/08/31 00:21:28;;;;;;;3.17;1.60;;;19.00;69.20;;;;;;2089156;28;20021;-84
2022/08/31 00:22:30;;;;;;;3.50;1.60;;;19.00;69.20;;;;;;2081268;28;21009;-81
2022/08/31 00:23:31;;;;;;;3.47;1.63;;;19.00;69.20;;;;;;2086945;28;20033;-82
2022/08/31 00:24:32;;;;;;;2.92;1.52;;;19.00;69.30;;;;;;2098466;28;20067;-82
2022/08/31 00:25:34;;;;;;;4.82;1.40;;;18.90;69.10;;;;;;2090785;28;20025;-84
2022/08/31 00:26:36;;;;;;;3.38;1.35;;;18.90;69.20;;;;;;2092504;28;20043;-84
2022/08/31 00:27:37;;;;;;;2.40;1.50;;;18.90;69.30;;;;;;2095109;28;20446;-81
2022/08/31 00:28:38;;;;;;;6.35;1.55;;;18.90;69.30;;;;;;2083048;28;20365;-82
2022/08/31 00:29:39;;;;;;;3.97;1.27;;;18.90;69.20;;;;;;2081839;28;20033;-84
2022/08/31 00:30:40;;;;;;;5.72;1.50;;;18.90;69.40;;;;;;2099120;28;20016;-85
2022/08/31 00:31:41;;;;;;;2.42;1.30;;;18.90;69.40;;;;;;2094015;28;20033;-83
2022/08/31 00:32:42;;;;;;;6.50;2.07;;;18.90;69.40;;;;;;2099172;28;20482;-85
2022/08/31 00:33:43;;;;;;;2.50;1.27;;;18.90;69.50;;;;;;2090090;28;20040;-84
2022/08/31 00:34:44;;;;;;;2.95;1.35;;;18.90;69.50;;;;;;2082530;28;20021;-82
2022/08/31 00:35:46;;;;;;;3.28;1.40;;;18.90;69.60;;;;;;2090556;28;20037;-83
2022/08/31 00:36:47;;;;;;;5.03;1.20;;;18.90;69.50;;;;;;2088114;28;20025;-82
2022/08/31 00:37:48;;;;;;;2.88;1.73;;;18.90;69.40;;;;;;2086635;28;20026;-82
2022/08/31 00:38:50;;;;;;;3.37;1.50;;;18.90;69.50;;;;;;2082660;28;20467;-84
2022/08/31 00:39:52;;;;;;;5.85;1.48;;;18.90;69.50;;;;;;2090512;28;20025;-82
2022/08/31 00:40:53;;;;;;;4.50;1.40;;;18.80;69.60;;;;;;2093153;28;20254;-82
2022/08/31 00:41:54;;;;;;;3.03;1.53;;;18.90;69.50;;;;;;2092031;28;20041;-84
2022/08/31 00:42:55;;;;;;;1.47;1.13;;;18.90;69.40;;;;;;2109826;28;20039;-82
2022/08/31 00:43:59;;;;;;;6.05;1.40;;;18.80;69.40;;;;;;2098768;28;20102;-85
2022/08/31 00:45:00;;;;;;;2.65;1.25;;;18.90;69.50;;;;;;2107691;28;20526;-84
2022/08/31 00:46:01;;;;;;;4.43;1.40;;;18.80;69.50;;;;;;2098586;28;20300;-83
2022/08/31 00:47:02;;;;;;;3.17;1.27;;;18.80;69.50;;;;;;2099460;28;20051;-85
2022/08/31 00:48:03;;;;;;;3.13;1.37;;;18.80;69.60;;;;;;2106324;28;20028;-84
2022/08/31 00:49:09;;;;;;;2.23;1.10;;;18.80;69.50;;;;;;2090453;28;20414;-84
2022/08/31 00:50:13;;;;;;;2.30;1.10;;;18.80;69.80;;;;;;2091809;28;20059;-82
2022/08/31 00:51:14;;;;;;;7.13;1.50;;;18.80;69.80;;;;;;2090739;28;20285;-82
2022/08/31 00:52:23;;;;;;;3.25;1.50;;;18.80;69.80;;;;;;2095661;28;20372;-83
2022/08/31 00:53:25;;;;;;;2.97;1.55;;;18.80;69.80;;;;;;2091187;28;20155;-83
2022/08/31 00:54:43;;;;;;;3.70;1.35;;;18.80;69.90;;;;;;2089110;28;20316;-83
2022/08/31 00:55:44;;;;;;;1.98;1.40;;;18.80;69.90;;;;;;2090178;28;20186;-84
2022/08/31 00:56:45;;;;;;;3.25;1.63;;;18.80;69.90;;;;;;2096493;28;20265;-82
2022/08/31 00:57:50;;;;;;;3.75;1.48;;;18.80;69.90;;;;;;2100021;28;20021;-82
2022/08/31 00:58:52;;;;;;;4.85;1.38;;;18.80;69.90;;;;;;2090714;28;20033;-83
2022/08/31 00:59:53;;;;;;;4.57;1.42;;;18.80;70.00;;;;;;2084083;28;20310;-82
2022/08/31 01:00:54;;;;;;;;;;;18.70;70.00;;;;;;2083305;28;20156;-83
2022/08/31 01:01:55;;;;;;;5.00;1.55;;;18.80;70.00;;;;;;2080650;28;20318;-82
2022/08/31 01:02:58;;;;;;;3.50;1.43;;;18.70;69.90;;;;;;2088791;28;20028;-83
2022/08/31 01:03:59;;;;;;;2.90;1.35;;;18.80;70.00;;;;;;2089545;28;20514;-84
2022/08/31 01:05:00;;;;;;;2.60;1.17;;;18.80;70.00;;;;;;2090366;28;20281;-84
2022/08/31 01:06:02;;;;;;;4.57;1.60;;;18.70;70.00;;;;;;2089511;28;20021;-81
2022/08/31 01:07:04;;;;;;;3.05;1.48;;;18.70;70.10;;;;;;2090970;28;20467;-82
2022/08/31 01:08:06;;;;;;;3.40;1.52;;;18.70;70.20;;;;;;2090398;28;20025;-83
2022/08/31 01:09:09;;;;;;;3.20;1.38;;;18.70;70.10;;;;;;2098734;28;20665;-84
2022/08/31 01:10:10;;;;;;;3.35;1.70;;;18.70;70.30;;;;;;2094715;28;20059;-84
2022/08/31 01:11:12;;;;;;;4.88;1.42;;;18.70;70.30;;;;;;2092136;28;20289;-84
2022/08/31 01:12:13;;;;;;;2.50;1.45;;;18.70;70.40;;;;;;2088053;28;20052;-84
2022/08/31 01:13:15;;;;;;;4.85;1.50;;;18.70;70.40;;;;;;2076936;28;20341;-84
2022/08/31 01:14:16;;;;;;;2.60;1.42;;;18.70;70.40;;;;;;2089748;28;20356;-82
2022/08/31 01:15:17;;;;;;;4.67;1.13;;;18.70;70.50;;;;;;2097435;28;20028;-83
2022/08/31 01:16:42;;;;;;;6.15;1.45;;;18.70;70.50;;;;;;2085873;28;20048;-84
2022/08/31 01:17:47;;;;;;;4.47;1.42;;;18.70;70.70;;;;;;2085395;28;20028;-83
2022/08/31 01:18:49;;;;;;;6.80;1.60;;;18.70;70.50;;;;;;2082516;28;20251;-84
2022/08/31 01:20:05;;;;;;;5.70;1.67;;;18.60;70.50;;;;;;2086993;28;20262;-81
2022/08/31 01:21:25;;;;;;;4.95;1.58;;;18.60;70.70;;;;;;2089447;28;20608;-81
2022/08/31 01:22:58;;;;;;;5.22;1.75;;;18.60;70.70;;;;;;2091873;28;20301;-84
2022/08/31 01:24:02;;;;;;;3.83;1.60;;;18.60;70.80;;;;;;2064658;28;20317;-83
2022/08/31 01:25:03;;;;;;;3.63;1.60;;;18.60;70.90;;;;;;2087291;28;20068;-83
2022/08/31 01:26:07;;;;;;;2.17;1.25;;;18.60;71.00;;;;;;2087781;28;20766;-85
2022/08/31 01:27:08;;;;;;;2.17;1.02;;;18.60;71.20;;;;;;2099175;28;20095;-83
2022/08/31 01:28:09;;;;;;;3.00;1.60;;;18.60;71.10;;;;;;2096704;28;20269;-82
2022/08/31 01:29:11;;;;;;;2.22;1.13;;;18.50;71.10;;;;;;2081812;28;20274;-84
2022/08/31 01:30:20;;;;;;;2.78;1.33;;;18.60;71.20;;;;;;2096081;28;20261;-82
2022/08/31 01:31:25;;;;;;;2.40;1.50;;;18.50;71.30;;;;;;2092039;28;20110;-83
2022/08/31 01:32:28;;;;;;;2.30;1.10;;;18.50;71.30;;;;;;2091661;28;20319;-83
2022/08/31 01:33:30;;;;;;;3.92;1.45;;;18.50;71.40;;;;;;2086961;28;20270;-83
2022/08/31 01:34:31;;;;;;;3.20;1.48;;;18.50;71.50;;;;;;2090510;28;20151;-83
2022/08/31 01:35:33;;;;;;;3.70;1.42;;;18.50;71.60;;;;;;2089902;28;20040;-84
2022/08/31 01:36:36;;;;;;;3.13;1.15;;;18.50;71.60;;;;;;2090554;28;20513;-83
2022/08/31 01:37:37;;;;;;;5.18;1.55;;;18.50;71.60;;;;;;2094372;28;20036;-83
2022/08/31 01:38:37;;;;;;;5.40;1.70;;;18.40;71.70;;;;;;2090760;28;20285;-84
2022/08/31 01:39:38;;;;;;;3.88;1.58;;;18.40;71.70;;;;;;2090755;28;20025;-83
2022/08/31 01:40:52;;;;;;;4.55;1.30;;;18.50;71.70;;;;;;2090212;28;20120;-84
2022/08/31 01:41:53;;;;;;;2.63;1.27;;;18.50;71.90;;;;;;2084281;28;20460;-83
2022/08/31 01:42:54;;;;;;;1.50;1.10;;;18.40;71.80;;;;;;2086538;28;20608;-84
2022/08/31 01:43:56;;;;;;;4.80;1.47;;;18.40;71.80;;;;;;2086743;28;20032;-83
2022/08/31 01:44:56;;;;;;;3.10;1.30;;;18.40;72.50;;;;;;2089947;28;20025;-83
2022/08/31 01:45:58;;;;;;;2.93;1.60;;;18.40;71.90;;;;;;2084295;28;20029;-84
2022/08/31 01:47:00;;;;;;;4.40;1.63;;;18.40;71.90;;;;;;2082970;28;20025;-84
2022/08/31 01:48:01;;;;;;;4.10;1.40;;;18.40;71.90;;;;;;2082683;28;20250;-84
2022/08/31 01:49:02;;;;;;;5.05;1.50;;;18.40;72.00;;;;;;2090188;28;20135;-82
2022/08/31 01:50:04;;;;;;;3.67;1.33;;;18.40;72.00;;;;;;2090692;28;20033;-83
2022/08/31 01:51:05;;;;;;;5.18;1.42;;;18.30;72.00;;;;;;2092817;28;20434;-85
2022/08/31 01:52:06;;;;;;;5.38;1.55;;;18.30;72.10;;;;;;2092317;28;20036;-83
2022/08/31 01:53:08;;;;;;;4.38;1.55;;;18.30;72.20;;;;;;2087352;28;20018;-83
2022/08/31 01:54:09;;;;;;;2.08;1.33;;;18.30;72.40;;;;;;2082235;28;20030;-84
2022/08/31 01:55:10;;;;;;;3.35;1.40;;;18.30;72.30;;;;;;2086161;28;20068;-83
2022/08/31 01:56:14;;;;;;;6.15;1.42;;;18.30;72.30;;;;;;2081985;28;20064;-82
2022/08/31 01:57:15;;;;;;;4.43;1.55;;;18.40;72.30;;;;;;2082896;28;20108;-83
2022/08/31 01:58:36;;;;;;;3.92;1.50;;;18.30;72.30;;;;;;2087434;28;20272;-83
2022/08/31 02:00:08;;;;;;;4.07;1.45;;;18.30;72.20;;;;;;2100707;28;20722;-82
2022/08/31 02:01:15;;;;;;;5.25;1.65;;;18.30;72.40;;;;;;2107615;28;20252;-83
2022/08/31 02:02:16;;;;;;;4.00;1.70;;;18.30;72.40;;;;;;2091384;28;20266;-83
2022/08/31 02:03:17;;;;;;;5.23;1.63;;;18.30;72.30;;;;;;2074292;28;20544;-83
2022/08/31 02:04:21;;;;;;;5.03;1.65;;;18.30;72.40;;;;;;2082381;28;20375;-82
2022/08/31 02:05:22;;;;;;;5.55;1.52;;;18.20;72.50;;;;;;2081995;28;20049;-84
2022/08/31 02:06:23;;;;;;;5.32;1.80;;;18.20;72.40;;;;;;2082321;28;20281;-84
2022/08/31 02:07:24;;;;;;;4.67;1.50;;;18.20;72.40;;;;;;2098956;28;20032;-82
2022/08/31 02:08:25;;;;;;;6.03;1.90;;;18.20;72.50;;;;;;2098878;28;20134;-84
2022/08/31 02:09:28;;;;;;;2.70;1.23;;;18.20;72.60;;;;;;2090045;28;20175;-84
2022/08/31 02:10:29;;;;;;;3.60;1.30;;;18.20;72.50;;;;;;2097871;28;20032;-83
2022/08/31 02:11:30;;;;;;;5.43;1.60;;;18.20;72.70;;;;;;2098817;28;20734;-83
2022/08/31 02:12:31;;;;;;;4.13;1.60;;;18.20;72.90;;;;;;2090427;28;20036;-85
2022/08/31 02:13:33;;;;;;;2.45;1.60;;;18.20;72.90;;;;;;2086657;28;20043;-82
2022/08/31 02:14:33;;;;;;;3.03;1.48;;;18.10;72.90;;;;;;2098400;28;20029;-84
2022/08/31 02:15:36;;;;;;;5.77;1.70;;;18.10;72.90;;;;;;2088838;28;20021;-83
2022/08/31 02:16:37;;;;;;;5.18;1.70;;;18.10;72.90;;;;;;2082545;28;20021;-85
2022/08/31 02:17:40;;;;;;;5.18;1.80;;;18.10;72.90;;;;;;2082764;28;20278;-82
2022/08/31 02:18:41;;;;;;;5.72;1.60;;;18.10;72.90;;;;;;2090801;28;20665;-82
2022/08/31 02:19:41;;;;;;;3.27;1.60;;;18.10;72.90;;;;;;2107307;28;20020;-83
2022/08/31 02:20:42;;;;;;;5.43;1.67;;;18.10;72.90;;;;;;2090618;28;20061;-84
2022/08/31 02:21:44;;;;;;;4.07;1.35;;;18.10;72.90;;;;;;2092487;28;20028;-85
2022/08/31 02:22:47;;;;;;;4.63;1.83;;;18.10;73.00;;;;;;2098191;28;20063;-82
2022/08/31 02:23:48;;;;;;;3.00;1.50;;;18.10;73.00;;;;;;2087342;28;20367;-84
2022/08/31 02:24:48;;;;;;;3.72;1.67;;;18.10;73.00;;;;;;2082383;28;20270;-85
2022/08/31 02:25:50;;;;;;;6.53;1.63;;;18.10;73.00;;;;;;2090892;28;20052;-83
2022/08/31 02:26:51;;;;;;;3.60;1.47;;;18.10;73.00;;;;;;2088745;28;20065;-84
2022/08/31 02:27:52;;;;;;;3.73;1.43;;;18.10;73.10;;;;;;2079096;28;20032;-82
2022/08/31 02:28:53;;;;;;;3.70;1.60;;;18.00;73.30;;;;;;2086185;28;20266;-84
2022/08/31 02:29:54;;;;;;;5.38;1.83;;;18.00;73.30;;;;;;2090382;28;20029;-84
2022/08/31 02:30:56;;;;;;;9.68;1.98;;;18.00;73.40;;;;;;2089913;28;20033;-83
2022/08/31 02:31:58;;;;;;;3.90;1.50;;;18.00;73.40;;;;;;2093824;28;20067;-84
2022/08/31 02:32:58;;;;;;;2.13;1.27;;;18.00;73.40;;;;;;2082481;28;20029;-82
2022/08/31 02:34:00;;;;;;;4.27;1.80;;;18.00;73.20;;;;;;2082251;28;20026;-85
2022/08/31 02:35:01;;;;;;;4.70;1.63;;;18.00;73.20;;;;;;2082517;28;20108;-84
2022/08/31 02:36:02;;;;;;;3.85;1.50;;;18.00;73.20;;;;;;2089864;28;20478;-83
2022/08/31 02:37:03;;;;;;;3.53;1.73;;;18.00;73.20;;;;;;2082551;28;20387;-83
2022/08/31 02:38:05;;;;;;;4.23;1.60;;;18.00;73.20;;;;;;2090552;28;20033;-83
2022/08/31 02:39:06;;;;;;;7.32;1.55;;;18.00;73.40;;;;;;2082642;28;20025;-84
2022/08/31 02:40:08;;;;;;;4.40;2.00;;;18.00;73.50;;;;;;2090017;28;20262;-82
2022/08/31 02:41:09;;;;;;;5.18;2.00;;;17.90;73.70;;;;;;2090452;28;20021;-84
2022/08/31 02:42:13;;;;;;;5.50;1.60;;;17.90;73.80;;;;;;2080648;28;20029;-82
2022/08/31 02:43:13;;;;;;;3.63;1.92;;;17.90;73.70;;;;;;2090600;28;20327;-84
2022/08/31 02:44:15;;;;;;;4.85;1.60;;;17.90;73.60;;;;;;2096207;28;20047;-84
2022/08/31 02:45:15;;;;;;;6.07;1.90;;;18.00;73.60;;;;;;2106792;28;20089;-83
2022/08/31 02:46:17;;;;;;;;;;;18.00;73.50;;;;;;2099282;28;20021;-85
2022/08/31 02:47:29;;;;;;;2.83;1.45;;;18.00;73.40;;;;;;2092022;28;19908;-84
2022/08/31 02:48:52;;;;;;;3.05;1.80;;;17.90;73.50;;;;;;2091002;28;20296;-82
2022/08/31 02:49:55;;;;;;;3.50;1.35;;;17.90;73.50;;;;;;2086920;28;20262;-82
2022/08/31 02:51:04;;;;;;;6.25;1.50;;;18.00;73.60;;;;;;2092138;28;20274;-82
2022/08/31 02:52:05;;;;;;;5.32;1.63;;;18.00;73.50;;;;;;2092816;28;20043;-82
2022/08/31 02:53:06;;;;;;;4.30;1.40;;;18.00;73.40;;;;;;2083809;28;20251;-82
2022/08/31 02:54:08;;;;;;;2.97;1.40;;;18.00;73.50;;;;;;2079855;28;20106;-83
2022/08/31 02:55:09;;;;;;;4.65;1.48;;;17.90;73.50;;;;;;2075891;28;20038;-84
2022/08/31 02:56:13;;;;;;;5.75;1.30;;;17.90;73.50;;;;;;2083029;28;20037;-83
2022/08/31 02:57:13;;;;;;;5.05;1.70;;;17.90;73.60;;;;;;2084414;28;20017;-83
2022/08/31 02:58:15;;;;;;;5.38;2.00;;;17.90;73.70;;;;;;2092106;28;20261;-82
2022/08/31 02:59:16;;;;;;;3.38;1.60;;;17.90;73.80;;;;;;2093584;28;20049;-85
2022/08/31 03:00:21;;;;;;;2.85;1.60;;;17.80;73.80;;;;;;2091182;28;20047;-82
2022/08/31 03:01:23;;;;;;;6.13;1.45;;;17.90;73.80;;;;;;2097421;28;20272;-83
2022/08/31 03:02:24;;;;;;;4.28;1.52;;;17.80;73.80;;;;;;2091304;28;20300;-84
2022/08/31 03:03:25;;;;;;;3.85;1.60;;;17.80;73.70;;;;;;2091902;28;20029;-82
2022/08/31 03:04:26;;;;;;;4.57;1.77;;;17.80;73.80;;;;;;2108326;28;20047;-83
2022/08/31 03:05:27;;;;;;;5.25;2.03;;;17.80;73.90;;;;;;2100166;28;20033;-85
2022/08/31 03:06:30;;;;;;;2.50;1.42;;;17.80;73.90;;;;;;2097121;28;20024;-84
2022/08/31 03:07:32;;;;;;;3.42;1.90;;;17.70;73.80;;;;;;2100200;28;20036;-84
2022/08/31 03:08:33;;;;;;;6.78;2.10;;;17.70;73.90;;;;;;2100219;28;20273;-84
2022/08/31 03:09:34;;;;;;;5.32;1.67;;;17.80;74.00;;;;;;2093918;28;20266;-82
2022/08/31 03:10:36;;;;;;;6.22;1.95;;;17.70;74.00;;;;;;2091679;28;20184;-83
2022/08/31 03:11:37;;;;;;;5.00;1.70;;;17.70;74.00;;;;;;2083547;28;20041;-84
2022/08/31 03:12:38;;;;;;;2.07;1.30;;;17.70;74.00;;;;;;2091709;28;20528;-83
2022/08/31 03:13:40;;;;;;;;;;;17.70;74.20;;;;;;2092626;28;20021;-83
2022/08/31 03:14:41;;;;;;;3.20;1.58;;;17.70;74.10;;;;;;2100019;28;19946;-85
2022/08/31 03:15:42;;;;;;;5.53;1.67;;;17.70;74.10;;;;;;2099352;28;20355;-84
2022/08/31 03:16:44;;;;;;;6.82;1.40;;;17.60;74.10;;;;;;2091779;28;20021;-84
2022/08/31 03:17:45;;;;;;;7.10;1.65;;;17.70;74.20;;;;;;2087717;28;20040;-82
2022/08/31 03:18:47;;;;;;;3.17;1.52;;;17.70;74.10;;;;;;2091816;28;20254;-83
2022/08/31 03:19:48;;;;;;;;;;;17.70;74.00;;;;;;2094784;28;20063;-83
2022/08/31 03:20:50;;;;;;;5.13;1.80;;;17.70;74.00;;;;;;2091821;28;19913;-83
2022/08/31 03:21:50;;;;;;;4.00;1.75;;;17.70;73.90;;;;;;2083371;28;20251;-83
2022/08/31 03:22:51;;;;;;;4.73;2.17;;;17.70;74.60;;;;;;2082843;28;20708;-82
2022/08/31 03:23:52;;;;;;;4.17;2.00;;;17.70;73.90;;;;;;2083238;28;20057;-83
2022/08/31 03:24:54;;;;;;;7.85;2.20;;;17.70;73.90;;;;;;2091830;28;20097;-83
2022/08/31 03:25:56;;;;;;;5.90;2.40;;;17.70;74.00;;;;;;2083823;28;20085;-82
2022/08/31 03:26:57;;;;;;;6.05;2.60;;;17.70;74.10;;;;;;2091608;28;20582;-85
2022/08/31 03:27:58;;;;;;;7.73;2.90;;;17.70;74.20;;;;;;2100467;28;20366;-83
2022/08/31 03:28:59;;;;;;;6.93;2.53;;;17.70;74.20;;;;;;2091158;28;20033;-83
2022/08/31 03:30:21;;;;;;;6.70;3.83;;;17.70;74.20;;;;;;2096605;28;20028;-85
2022/08/31 03:31:33;;;;;;;6.65;4.30;;;17.60;74.30;;;;;;2095369;28;20253;-83
2022/08/31 03:32:34;;;;;;;10.27;4.65;;;17.60;74.50;;;;;;2093140;28;20740;-83
2022/08/31 03:33:35;;;;;;;12.73;5.10;;;17.60;74.50;;;;;;2091745;28;20377;-83
2022/08/31 03:34:36;;;;;;;12.43;4.63;;;17.60;74.70;;;;;;2083637;28;20036;-83
2022/08/31 03:35:42;;;;;;;13.15;5.85;;;17.60;74.80;;;;;;2096295;28;20025;-85
2022/08/31 03:36:43;;;;;;;15.25;5.57;;;17.60;74.80;;;;;;2084076;28;20049;-83
2022/08/31 03:37:44;;;;;;;12.10;4.57;;;17.50;74.80;;;;;;2089766;28;20261;-83
2022/08/31 03:38:45;;;;;;;9.23;4.28;;;17.60;74.80;;;;;;2091681;28;20067;-83
2022/08/31 03:39:47;;;;;;;12.37;3.40;;;17.60;74.80;;;;;;2091574;28;20071;-83
2022/08/31 03:40:49;;;;;;;5.93;3.10;;;17.60;74.80;;;;;;2091588;28;20024;-82
2022/08/31 03:41:50;;;;;;;11.48;3.45;;;17.50;74.80;;;;;;2083435;28;20044;-83
2022/08/31 03:42:52;;;;;;;;;;;17.50;74.80;;;;;;2076753;28;20264;-84
2022/08/31 03:43:54;;;;;;;4.80;2.17;;;17.50;74.80;;;;;;2088306;28;19904;-85
2022/08/31 03:44:55;;;;;;;;;;;17.50;74.90;;;;;;2084009;28;20258;-85
2022/08/31 03:46:03;;;;;;;6.75;2.70;;;17.50;75.70;;;;;;2092944;28;19947;-84
2022/08/31 03:47:04;;;;;;;7.03;2.20;;;17.60;75.00;;;;;;2099809;28;20272;-82
2022/08/31 03:48:06;;;;;;;3.50;1.92;;;17.50;74.90;;;;;;2083309;28;20633;-83
2022/08/31 03:49:07;;;;;;;;;;;17.50;75.00;;;;;;2091459;28;20120;-82
2022/08/31 03:50:09;;;;;;;5.82;1.92;;;17.50;75.20;;;;;;2083224;28;19905;-82
2022/08/31 03:51:20;;;;;;;4.88;2.05;;;17.50;75.30;;;;;;2084750;28;20274;-82
2022/08/31 03:52:21;;;;;;;3.17;1.95;;;17.50;75.40;;;;;;2083828;28;20045;-82
2022/08/31 03:53:30;;;;;;;4.70;2.03;;;17.50;75.30;;;;;;2092661;28;20029;-83
2022/08/31 03:54:34;;;;;;;4.43;1.90;;;17.50;75.20;;;;;;2084954;28;20270;-83
2022/08/31 03:55:37;;;;;;;2.88;1.48;;;17.50;75.30;;;;;;2082719;28;20336;-83
2022/08/31 03:56:40;;;;;;;4.82;1.73;;;17.40;76.20;;;;;;2076123;28;20044;-85
2022/08/31 03:57:41;;;;;;;6.90;2.03;;;17.40;75.60;;;;;;2091689;28;20273;-83
2022/08/31 03:58:42;;;;;;;3.80;1.83;;;17.40;75.60;;;;;;2090733;28;20033;-83
2022/08/31 03:59:44;;;;;;;3.35;1.90;;;17.40;75.70;;;;;;2091351;28;20025;-84
2022/08/31 04:00:53;;;;;;;3.50;2.08;;;17.40;75.80;;;;;;2085955;28;20301;-84
2022/08/31 04:02:13;;;;;;;4.93;1.90;;;17.40;75.70;;;;;;2094578;28;20308;-82
2022/08/31 04:03:40;;;;;;;5.07;2.20;;;17.40;75.60;;;;;;2097677;28;20113;-82
2022/08/31 04:04:59;;;;;;;7.53;2.10;;;17.40;75.60;;;;;;2105175;28;20453;-85
2022/08/31 04:06:21;;;;;;;4.05;2.20;;;17.40;75.60;;;;;;2108194;28;20586;-82
2022/08/31 04:07:54;;;;;;;6.60;2.20;;;17.40;75.70;;;;;;2101231;28;20281;-84
2022/08/31 04:09:13;;;;;;;5.70;2.42;;;17.40;75.60;;;;;;2099467;28;20355;-84
2022/08/31 04:10:32;;;;;;;4.68;2.03;;;17.40;75.60;;;;;;2096260;28;20238;-82
2022/08/31 04:11:52;;;;;;;4.63;2.13;;;17.40;75.70;;;;;;2107286;28;20622;-82
2022/08/31 04:13:28;;;;;;;5.00;2.15;;;17.40;75.70;;;;;;2100342;28;20276;-82
2022/08/31 04:14:49;;;;;;;4.05;2.40;;;17.40;75.80;;;;;;2085884;28;20332;-85
2022/08/31 04:16:15;;;;;;;5.28;2.55;;;17.40;75.80;;;;;;2081432;28;20286;-82
2022/08/31 04:17:25;;;;;;;5.45;2.33;;;17.40;75.60;;;;;;2099470;28;20260;-83
2022/08/31 04:18:33;;;;;;;6.95;2.15;;;17.40;75.50;;;;;;2096256;28;20100;-87
2022/08/31 04:19:34;;;;;;;11.85;3.45;;;17.40;75.40;;;;;;2083976;28;20308;-85
2022/08/31 04:20:48;;;;;;;3.92;2.10;;;17.40;75.30;;;;;;2094841;28;20021;-86
2022/08/31 04:21:49;;;;;;;7.80;3.00;;;17.40;75.30;;;;;;2099487;28;20273;-87
2022/08/31 04:22:50;;;;;;;3.97;2.10;;;17.40;75.30;;;;;;2093705;28;20025;-84
2022/08/31 04:24:03;;;;;;;9.55;2.40;;;17.50;75.30;;;;;;2086167;28;20403;-85
2022/08/31 04:25:04;;;;;;;3.45;2.20;;;17.40;75.30;;;;;;2081960;28;20384;-87
2022/08/31 04:26:09;;;;;;;4.03;1.83;;;17.40;76.10;;;;;;2083113;28;20025;-87
2022/08/31 04:27:10;;;;;;;4.93;2.47;;;17.40;75.40;;;;;;2091676;28;20029;-85
2022/08/31 04:28:11;;;;;;;4.53;2.33;;;17.40;75.30;;;;;;2101473;28;20662;-87
2022/08/31 04:29:13;;;;;;;4.75;2.45;;;17.40;75.40;;;;;;2098543;28;20041;-86
2022/08/31 04:30:14;;;;;;;8.05;2.72;;;17.40;75.30;;;;;;2091144;28;20300;-85
2022/08/31 04:31:16;;;;;;;5.53;2.70;;;17.40;75.40;;;;;;2083098;28;20025;-86
2022/08/31 04:32:17;;;;;;;4.32;2.78;;;17.40;75.30;;;;;;2082232;28;20038;-84
2022/08/31 04:33:18;;;;;;;5.78;2.80;;;17.40;75.30;;;;;;2089178;28;20047;-86
2022/08/31 04:34:19;;;;;;;4.67;2.73;;;17.40;75.30;;;;;;2097467;28;20219;-86
2022/08/31 04:35:20;;;;;;;7.40;2.73;;;17.40;75.40;;;;;;2090948;28;20130;-86
2022/08/31 04:36:22;;;;;;;4.57;2.63;;;17.40;75.30;;;;;;2090572;28;20112;-86
2022/08/31 04:37:27;;;;;;;9.18;2.40;;;17.50;75.30;;;;;;2096775;28;20093;-86
2022/08/31 04:38:27;;;;;;;6.50;2.63;;;17.40;75.10;;;;;;2107805;28;20591;-87
2022/08/31 04:39:28;;;;;;;6.75;3.30;;;17.40;75.10;;;;;;2099343;28;20020;-84
2022/08/31 04:40:29;;;;;;;4.67;3.17;;;17.40;75.20;;;;;;2082810;28;20037;-86
2022/08/31 04:41:34;;;;;;;5.07;2.97;;;17.40;75.20;;;;;;2091326;28;20021;-86
2022/08/31 04:42:37;;;;;;;5.90;2.67;;;17.40;75.20;;;;;;2083193;28;20772;-87
2022/08/31 04:43:42;;;;;;;4.65;2.92;;;17.40;75.30;;;;;;2091490;28;20785;-85
2022/08/31 04:44:42;;;;;;;6.10;3.45;;;17.40;75.30;;;;;;2091734;28;20265;-85
2022/08/31 04:45:43;;;;;;;7.28;3.40;;;17.40;75.30;;;;;;2082204;28;20321;-87
2022/08/31 04:46:44;;;;;;;4.03;2.63;;;17.40;75.30;;;;;;2082915;28;20391;-86
2022/08/31 04:47:45;;;;;;;6.43;2.60;;;17.40;75.20;;;;;;2079553;28;20116;-86
2022/08/31 04:48:47;;;;;;;5.53;2.83;;;17.40;75.20;;;;;;2082967;28;20044;-87
2022/08/31 04:49:48;;;;;;;5.75;3.25;;;17.40;75.20;;;;;;2098683;28;20028;-86
2022/08/31 04:50:49;;;;;;;6.35;3.65;;;17.30;75.20;;;;;;2099009;28;20806;-86
2022/08/31 04:51:50;;;;;;;6.40;2.92;;;17.40;75.30;;;;;;2091095;28;20041;-86
2022/08/31 04:52:51;;;;;;;7.33;3.80;;;17.30;75.30;;;;;;2090852;28;20135;-85
2022/08/31 04:53:52;;;;;;;10.02;4.25;;;17.30;75.40;;;;;;2082818;28;20056;-86
2022/08/31 04:54:53;;;;;;;7.80;3.95;;;17.30;75.50;;;;;;2082713;28;20022;-87
2022/08/31 04:55:54;;;;;;;7.45;3.85;;;17.30;75.50;;;;;;2082262;28;20022;-87
2022/08/31 04:56:57;;;;;;;8.20;3.97;;;17.30;75.50;;;;;;2082216;28;20028;-85
2022/08/31 04:58:04;;;;;;;8.20;3.47;;;17.30;75.50;;;;;;2093259;28;20025;-87
2022/08/31 04:59:07;;;;;;;7.05;3.60;;;17.30;75.50;;;;;;2091086;28;20312;-85
2022/08/31 05:00:13;;;;;;;7.97;4.07;;;17.30;75.60;;;;;;2091077;28;20032;-87
2022/08/31 05:01:44;;;;;;;8.02;3.72;;;17.30;75.60;;;;;;2055102;28;20268;-87
2022/08/31 05:03:12;;;;;;;6.68;3.60;;;17.30;75.60;;;;;;2073877;28;20600;-86
2022/08/31 05:04:14;;;;;;;8.05;4.50;;;17.20;75.70;;;;;;2083641;28;20270;-85
2022/08/31 05:05:16;;;;;;;9.02;4.80;;;17.30;75.80;;;;;;2083040;28;20026;-87
2022/08/31 05:06:21;;;;;;;9.00;4.38;;;17.20;75.80;;;;;;2091042;28;20258;-87
2022/08/31 05:07:23;;;;;;;7.55;4.53;;;17.20;75.80;;;;;;2083588;28;20039;-87
2022/08/31 05:08:24;;;;;;;;;;;17.20;75.80;;;;;;2083380;28;20270;-86
2022/08/31 05:09:26;;;;;;;6.75;3.60;;;17.20;75.90;;;;;;2082328;28;19909;-87
2022/08/31 05:10:27;;;;;;;8.95;4.55;;;17.20;75.90;;;;;;2085114;28;20156;-85
2022/08/31 05:11:28;;;;;;;12.65;5.07;;;17.20;76.00;;;;;;2091457;28;20033;-85
2022/08/31 05:12:30;;;;;;;7.70;4.45;;;17.20;76.00;;;;;;2104664;28;20048;-87
2022/08/31 05:13:30;;;;;;;8.65;4.35;;;17.10;76.00;;;;;;2100014;28;20029;-85
2022/08/31 05:14:34;;;;;;;6.90;4.00;;;17.10;76.00;;;;;;2084148;28;20037;-87
2022/08/31 05:15:42;;;;;;;8.57;4.82;;;17.10;76.00;;;;;;2094403;28;20372;-85
2022/08/31 05:16:44;;;;;;;7.38;4.85;;;17.10;76.10;;;;;;2088867;28;20269;-87
2022/08/31 05:17:45;;;;;;;7.35;5.20;;;17.10;76.10;;;;;;2090901;28;20258;-88
2022/08/31 05:18:48;;;;;;;11.73;5.00;;;17.10;76.00;;;;;;2090901;28;20029;-85
2022/08/31 05:19:51;;;;;;;5.55;4.05;;;17.10;76.20;;;;;;2096184;28;20656;-85
2022/08/31 05:20:51;;;;;;;9.73;5.40;;;17.10;76.20;;;;;;2089153;28;20266;-87
2022/08/31 05:21:52;;;;;;;12.25;5.28;;;17.00;76.20;;;;;;2082523;28;20288;-86
2022/08/31 05:22:54;;;;;;;6.82;4.20;;;17.10;76.20;;;;;;2089689;28;20017;-87
2022/08/31 05:23:58;;;;;;;9.23;4.45;;;17.10;76.20;;;;;;2099040;28;20032;-84
2022/08/31 05:24:58;;;;;;;10.55;4.90;;;17.00;76.30;;;;;;2089288;28;20032;-85
2022/08/31 05:25:59;;;;;;;6.05;4.07;;;17.00;76.20;;;;;;2074401;28;20279;-87
2022/08/31 05:27:02;;;;;;;7.57;4.78;;;17.00;76.10;;;;;;2095170;28;20043;-85
2022/08/31 05:28:04;;;;;;;7.03;4.63;;;17.00;76.40;;;;;;2090717;28;20052;-86
2022/08/31 05:29:09;;;;;;;7.30;4.40;;;17.00;76.50;;;;;;2090443;28;20071;-84
2022/08/31 05:30:11;;;;;;;7.38;4.97;;;16.90;76.40;;;;;;2099707;28;20124;-87
2022/08/31 05:31:30;;;;;;;7.22;4.45;;;16.90;76.40;;;;;;2100467;28;20588;-86
2022/08/31 05:32:33;;;;;;;7.38;4.53;;;16.90;76.50;;;;;;2085020;28;20289;-85
2022/08/31 05:33:35;;;;;;;8.75;4.65;;;16.90;76.50;;;;;;2076510;28;20749;-85
2022/08/31 05:34:36;;;;;;;6.75;4.82;;;16.90;76.60;;;;;;2082689;28;20057;-85
2022/08/31 05:35:37;;;;;;;9.00;4.93;;;16.90;76.60;;;;;;2080004;28;20375;-86
2022/08/31 05:36:43;;;;;;;7.47;4.97;;;16.90;76.60;;;;;;2082646;28;20055;-86